createdAt,value
2023-06-28T00:01:19.912Z,4.45
2023-06-28T00:04:54.087Z,3.97
2023-06-28T00:08:28.198Z,5.50
2023-06-28T00:11:54.763Z,4.50
2023-06-28T00:15:22.113Z,4.15
2023-06-28T00:18:57.834Z,5.38
2023-06-28T00:22:30.783Z,4.07
2023-06-28T00:25:59.146Z,4.55
2023-06-28T00:29:26.518Z,5.60
2023-06-28T00:32:53.927Z,4.60
2023-06-28T00:36:22.170Z,4.97
2023-06-28T00:39:51.154Z,5.85
2023-06-28T00:43:22.610Z,6.63
2023-06-28T00:46:51.150Z,6.60
2023-06-28T00:50:25.465Z,6.60
2023-06-28T00:53:52.422Z,8.02
2023-06-28T00:57:21.034Z,5.65
2023-06-28T01:00:54.081Z,5.38
2023-06-28T01:04:22.120Z,4.75
2023-06-28T01:07:53.573Z,4.25
2023-06-28T01:11:21.783Z,5.30
2023-06-28T01:14:51.073Z,3.25
2023-06-28T01:18:21.558Z,2.90
2023-06-28T01:21:52.067Z,2.85
2023-06-28T01:25:21.388Z,3.17
2023-06-28T01:28:48.064Z,2.85
2023-06-28T01:32:17.445Z,2.53
2023-06-28T01:35:48.596Z,2.80
2023-06-28T01:39:22.164Z,2.72
2023-06-28T01:42:48.651Z,2.73
2023-06-28T01:46:15.297Z,3.25
2023-06-28T01:49:42.315Z,3.10
2023-06-28T01:53:10.925Z,3.00
2023-06-28T01:56:37.987Z,2.78
2023-06-28T02:00:10.088Z,2.70
2023-06-28T02:03:50.141Z,3.00
2023-06-28T02:07:18.903Z,2.90
2023-06-28T02:10:47.872Z,2.90
2023-06-28T02:14:15.919Z,2.63
2023-06-28T02:17:44.430Z,2.60
2023-06-28T02:21:13.274Z,2.80
2023-06-28T02:24:41.266Z,2.63
2023-06-28T02:28:18.335Z,3.10
2023-06-28T02:31:46.272Z,3.30
2023-06-28T02:35:17.677Z,3.58
2023-06-28T02:38:45.137Z,5.13
2023-06-28T02:42:12.438Z,3.47
2023-06-28T02:45:41.506Z,3.25
2023-06-28T02:53:10.182Z,2.78
2023-06-28T02:56:54.452Z,3.00
2023-06-28T03:00:52.206Z,2.65
2023-06-28T03:04:18.202Z,2.92
2023-06-28T03:07:52.677Z,3.20
2023-06-28T03:11:23.042Z,3.33
2023-06-28T03:14:55.495Z,3.05
2023-06-28T03:18:22.786Z,3.22
2023-06-28T03:22:04.547Z,2.60
2023-06-28T03:25:33.352Z,2.78
2023-06-28T03:29:01.191Z,2.63
2023-06-28T03:32:32.757Z,4.07
2023-06-28T03:36:07.542Z,3.08
2023-06-28T03:39:37.974Z,2.35
2023-06-28T03:43:06.788Z,2.15
2023-06-28T03:46:39.076Z,2.28
2023-06-28T03:50:07.899Z,2.40
2023-06-28T03:53:36.306Z,2.35
2023-06-28T03:57:06.557Z,2.10
2023-06-28T04:00:34.790Z,1.67
2023-06-28T04:04:05.895Z,2.25
2023-06-28T04:07:33.248Z,2.10
2023-06-28T04:11:05.790Z,2.15
2023-06-28T04:14:38.224Z,1.73
2023-06-28T04:18:07.312Z,2.83
2023-06-28T04:21:42.019Z,1.58
2023-06-28T04:25:17.013Z,1.70
2023-06-28T04:28:47.768Z,3.03
2023-06-28T04:32:28.256Z,1.80
2023-06-28T04:40:17.020Z,1.80
2023-06-28T04:43:48.707Z,1.73
2023-06-28T04:47:44.707Z,1.65
2023-06-28T04:51:12.215Z,1.67
2023-06-28T04:54:45.860Z,1.27
2023-06-28T04:58:21.386Z,1.70
2023-06-28T05:01:57.981Z,1.65
2023-06-28T05:05:36.136Z,1.63
2023-06-28T05:09:09.748Z,1.88
2023-06-28T05:12:38.807Z,1.50
2023-06-28T05:16:07.831Z,1.65
2023-06-28T05:19:43.195Z,1.65
2023-06-28T05:23:23.793Z,1.88
2023-06-28T05:26:51.865Z,1.67
2023-06-28T05:30:20.246Z,2.00
2023-06-28T05:37:32.897Z,1.70
2023-06-28T05:41:26.990Z,2.60
2023-06-28T05:44:54.825Z,1.30
2023-06-28T05:48:25.449Z,1.48
2023-06-28T05:55:25.079Z,1.27
2023-06-28T05:58:53.604Z,1.58
2023-06-28T06:02:20.524Z,1.20
2023-06-28T06:05:48.857Z,1.40
2023-06-28T06:09:16.161Z,1.33
2023-06-28T06:12:44.169Z,1.13
2023-06-28T06:16:12.962Z,1.45
2023-06-28T06:25:57.576Z,1.38
2023-06-28T06:28:25.869Z,1.70
2023-06-28T06:30:55.764Z,1.33
2023-06-28T06:33:24.490Z,1.38
2023-06-28T06:35:55.791Z,1.67
2023-06-28T06:38:26.798Z,4.00
2023-06-28T06:40:55.080Z,6.63
2023-06-28T06:43:23.188Z,4.35
2023-06-28T06:45:51.406Z,3.40
2023-06-28T06:48:21.598Z,2.80
2023-06-28T06:50:52.967Z,1.55
2023-06-28T06:53:22.089Z,6.70
2023-06-28T06:55:49.660Z,10.32
2023-06-28T06:58:19.450Z,25.35
2023-06-28T07:00:48.566Z,27.23
2023-06-28T07:03:20.614Z,29.65
2023-06-28T07:05:50.385Z,8.38
2023-06-28T07:08:24.617Z,6.13
2023-06-28T07:10:55.610Z,4.00
2023-06-28T07:13:25.390Z,4.00
2023-06-28T07:15:53.241Z,2.38
2023-06-28T07:18:23.671Z,1.33
2023-06-28T07:20:53.272Z,1.00
2023-06-28T07:23:24.181Z,2.22
2023-06-28T07:25:52.889Z,1.90
2023-06-28T07:28:22.500Z,1.85
2023-06-28T07:30:59.624Z,2.70
2023-06-28T07:33:32.965Z,1.80
2023-06-28T09:17:38.707Z,1.25
2023-06-28T09:20:17.916Z,1.30
2023-06-28T09:23:10.465Z,1.58
2023-06-28T09:25:38.697Z,1.90
2023-06-28T09:28:10.261Z,1.42
2023-06-28T09:30:58.454Z,1.02
2023-06-28T09:33:28.047Z,2.70
2023-06-28T09:36:01.639Z,2.03
2023-06-28T09:38:31.630Z,0.95
2023-06-28T09:41:03.569Z,1.40
2023-06-28T09:43:38.191Z,1.23
2023-06-28T09:46:17.826Z,1.10
2023-06-28T09:48:50.481Z,1.10
2023-06-28T09:51:27.942Z,1.25
2023-06-28T09:53:59.923Z,1.10
2023-06-28T09:56:38.299Z,1.20
2023-06-28T09:59:14.708Z,0.93
2023-06-28T10:01:51.751Z,1.58
2023-06-28T10:07:17.114Z,1.00
2023-06-28T10:09:48.749Z,0.98
2023-06-28T10:12:28.344Z,1.70
2023-06-28T10:15:04.457Z,1.10
2023-06-28T10:17:35.718Z,1.48
2023-06-28T10:20:08.796Z,1.38
2023-06-28T10:22:43.523Z,1.50
2023-06-28T10:28:21.038Z,1.25
2023-06-28T10:30:54.688Z,1.20
2023-06-28T10:33:25.582Z,1.58
2023-06-28T10:35:56.918Z,1.67
2023-06-28T10:38:36.068Z,1.40
2023-06-28T10:41:03.913Z,1.40
2023-06-28T10:43:34.452Z,1.95
2023-06-28T10:46:02.225Z,1.77
2023-06-28T10:48:32.438Z,1.75
2023-06-28T10:51:06.981Z,0.95
2023-06-28T10:53:34.896Z,1.65
2023-06-28T10:56:05.125Z,1.58
2023-06-28T11:11:37.144Z,2.05
2023-06-28T11:14:57.273Z,2.13
2023-06-28T11:17:39.217Z,1.65
2023-06-28T11:20:27.322Z,1.65
2023-06-28T11:23:07.983Z,1.40
2023-06-28T11:26:07.192Z,1.83
2023-06-28T11:35:05.719Z,0.90
2023-06-28T11:37:53.103Z,0.88
2023-06-28T11:40:44.732Z,0.80
2023-06-28T11:43:20.713Z,1.27
2023-06-28T11:45:54.863Z,1.08
2023-06-28T11:48:30.669Z,1.20
2023-06-28T11:51:26.054Z,0.80
2023-06-28T11:54:37.671Z,1.13
2023-06-28T11:57:15.218Z,1.10
2023-06-28T11:59:51.956Z,1.02
2023-06-28T12:02:22.573Z,0.82
2023-06-28T12:05:00.671Z,1.15
2023-06-28T12:07:32.136Z,1.13
2023-06-28T12:10:05.604Z,0.80
2023-06-28T12:13:05.252Z,0.80
2023-06-28T12:15:40.456Z,1.10
2023-06-28T12:21:26.014Z,1.13
2023-06-28T12:24:34.051Z,1.23
2023-06-28T12:27:09.733Z,1.10
2023-06-28T12:29:55.500Z,1.40
2023-06-28T12:32:39.132Z,1.33
2023-06-28T12:35:50.060Z,1.63
2023-06-28T12:43:35.862Z,2.13
2023-06-28T12:46:21.132Z,3.08
2023-06-28T12:48:57.198Z,3.10
2023-06-28T12:51:25.335Z,3.55
2023-06-28T12:53:53.851Z,3.20
2023-06-28T12:56:23.019Z,2.88
2023-06-28T12:58:50.671Z,4.32
2023-06-28T13:01:18.406Z,5.60
2023-06-28T13:03:46.946Z,5.60
2023-06-28T13:06:14.733Z,5.47
2023-06-28T13:08:42.604Z,4.13
2023-06-28T13:11:12.603Z,2.97
2023-06-28T13:13:39.784Z,2.70
2023-06-28T13:16:08.176Z,2.60
2023-06-28T13:18:35.855Z,2.25
2023-06-28T13:21:03.653Z,2.00
2023-06-28T13:23:31.121Z,1.70
2023-06-28T13:26:47.339Z,1.65
2023-06-28T13:29:16.504Z,1.10
2023-06-28T13:31:44.585Z,1.10
2023-06-28T13:34:14.736Z,1.17
2023-06-28T13:36:42.520Z,1.40
2023-06-28T13:39:10.584Z,1.60
2023-06-28T13:41:38.201Z,1.48
2023-06-28T13:44:05.769Z,1.48
2023-06-28T13:46:33.021Z,1.42
2023-06-28T14:11:55.748Z,7.60
2023-06-28T14:14:23.606Z,5.45
2023-06-28T14:16:50.978Z,5.25
2023-06-28T14:19:18.599Z,4.00
2023-06-28T14:21:45.891Z,4.75
2023-06-28T14:24:13.616Z,4.53
2023-06-28T14:26:40.944Z,4.57
2023-06-28T14:29:08.683Z,4.90
2023-06-28T14:31:35.922Z,4.03
2023-06-28T14:34:03.614Z,3.72
2023-06-28T14:36:30.929Z,2.05
2023-06-28T14:38:58.522Z,1.95
2023-06-28T14:41:25.748Z,1.67
2023-06-28T14:43:53.331Z,1.63
2023-06-28T14:46:20.620Z,1.90
2023-06-28T14:57:02.629Z,1.83
2023-06-28T14:59:29.949Z,2.08
2023-06-28T15:01:59.052Z,1.63
2023-06-28T15:04:29.081Z,1.63
2023-06-28T15:06:56.635Z,1.75
2023-06-28T15:09:24.258Z,2.33
2023-06-28T15:11:51.506Z,1.70
2023-06-28T15:14:19.198Z,1.55
2023-06-28T15:16:48.973Z,1.67
2023-06-28T15:19:18.293Z,2.00
2023-06-28T15:21:45.651Z,1.50
2023-06-28T15:24:13.397Z,1.80
2023-06-28T15:26:40.791Z,1.50
2023-06-28T15:29:08.387Z,1.40
2023-06-28T15:31:35.707Z,3.28
2023-06-28T15:34:03.438Z,1.65
2023-06-28T15:36:33.993Z,1.75
2023-06-28T15:39:01.606Z,3.88
2023-06-28T15:41:29.142Z,4.88
2023-06-28T15:43:56.950Z,4.70
2023-06-28T15:46:32.257Z,2.35
2023-06-28T15:51:28.219Z,2.05
2023-06-28T15:53:56.102Z,2.40
2023-06-28T15:56:23.600Z,1.90
2023-06-28T15:58:51.708Z,1.38
2023-06-28T16:01:19.786Z,2.22
2023-06-28T16:03:48.113Z,2.30
2023-06-28T16:06:15.577Z,2.17
2023-06-28T16:08:43.763Z,2.00
2023-06-28T16:11:14.226Z,2.30
2023-06-28T16:13:41.949Z,1.80
2023-06-28T16:16:10.393Z,2.25
2023-06-28T16:18:38.054Z,2.25
2023-06-28T16:21:05.406Z,1.98
2023-06-28T16:23:33.844Z,2.50
2023-06-28T16:26:01.191Z,2.85
2023-06-28T16:28:28.919Z,2.22
2023-06-28T16:30:56.834Z,2.33
2023-06-28T16:33:24.280Z,1.58
2023-06-28T16:35:52.025Z,2.03
2023-06-28T16:38:19.469Z,2.42
2023-06-28T16:40:49.257Z,1.58
2023-06-28T16:43:18.057Z,1.70
2023-06-28T16:45:45.682Z,1.85
2023-06-28T16:48:13.869Z,1.88
2023-06-28T16:50:42.084Z,1.60
2023-06-28T16:53:09.648Z,2.10
2023-06-28T16:55:37.298Z,1.73
2023-06-28T16:58:04.553Z,1.75
2023-06-28T17:00:32.257Z,2.10
2023-06-28T17:02:59.717Z,3.08
2023-06-28T17:05:28.031Z,2.00
2023-06-28T17:07:55.309Z,2.75
2023-06-28T17:10:23.090Z,1.67
2023-06-28T17:12:52.159Z,1.58
2023-06-28T17:15:19.830Z,1.70
2023-06-28T17:17:48.565Z,1.40
2023-06-28T17:20:17.469Z,1.58
2023-06-28T17:22:44.857Z,1.90
2023-06-28T17:25:12.692Z,1.50
2023-06-28T17:27:40.986Z,2.05
2023-06-28T17:30:09.413Z,1.73
2023-06-28T17:32:36.840Z,2.42
2023-06-28T17:35:07.170Z,1.45
2023-06-28T17:37:35.333Z,1.45
2023-06-28T17:40:03.220Z,1.42
2023-06-28T17:42:30.632Z,1.75
2023-06-28T17:44:58.341Z,2.22
2023-06-28T17:47:25.955Z,1.70
2023-06-28T17:49:54.148Z,1.52
2023-06-28T17:52:21.921Z,2.60
2023-06-28T17:54:49.554Z,2.05
2023-06-28T17:57:17.187Z,2.03
2023-06-28T17:59:46.696Z,2.03
2023-06-28T18:02:14.807Z,2.05
2023-06-28T18:04:44.282Z,1.92
2023-06-28T18:07:11.850Z,1.75
